Ajo, AZ

7:48 PM MST on August 30, 2014 (GMT -0700)
Gila Bend | Change Station
CLOSE
Current Station
Airport
Location: Gila Bend,
Elevation: 860 ft
Nearby Weather Stations

Elev 860 ft 32.88 °N, 112.72 °W | Updated 563 days ago

Clear
Clear
90 °F
Feels Like 90 °F
N
9
Wind Variable Wind from SW
Gusts 13 mph

Today
High -- | Low -- °F
--% Chance of Precip.
Yesterday
High -- | Low -- °F
Precip. -- in
6:05 AM 6:58 PM
Waxing Crescent, 26% visible
Pressure 30.14 in
Visibility 90.0 miles
Clouds Clear
Dew Point 46 °F
Humidity 22%
Rainfall 0.00 in
Snow Depth Not available.
UV 0 out of 12
Pollen 5.80 out of 12
Air Quality Not available.
Flu Activity Not available.
METAR KGBN 140055Z 02005KT 90SM SKC 16/M07 A3012 RMK SLP204

More Conditions Fewer Conditions

Pressure 30.14 in
Visibility 90.0 miles
Clouds Clear
Dew Point 46 °F
Humidity 22%
Rainfall 0.00 in
Snow Depth Not available.
UV 0 out of 12
Pollen 5.80 out of 12
Air Quality Not available.
Flu Activity Not available.
METAR KGBN 140055Z 02005KT 90SM SKC 16/M07 A3012 RMK SLP204

More Conditions Fewer Conditions

10-Day Weather Forecast

Almanac

Astronomy

Aug. 30, 2014 Rise Set
Actual Time 6:05 AM MST 6:58 PM MST
Civil Twilight 5:40 AM MST 7:23 PM MST
Nautical Twilight 5:10 AM MST 7:52 PM MST
Astronomical Twilight 4:39 AM MST 8:23 PM MST
Moon 10:38 AM MST (8/30) 9:54 PM MST (8/30)
Length of Visible Light 13h 43m
Length of Day
12h 53m
Tomorrow will be 1m 53s shorter.
Waxing Crescent, 26% of the Moon is Illuminated
Today
Waxing Crescent
Sep 2
First Quarter
Sep 8
Full
Sep 15
Last Quarter
Sep 24
New

Today's Extremes

State Highs State Lows

Community

WunderPhotos

Upload Photos

1,748,749 photos uploaded!

Nearby

Snow Depth

Station Depth Elevation
Workman Creek 0 in 6900 ft
Beaver Head 16 in 7990 ft

Earthquake Activity

City Distance Mag. Time & Date
No recent earthquake activity has been reported nearby.
Minimum magnitude displayed is 2.5.

Coastal Water Temperatures

Place Temperature
No Stations Reporting

Nearby Weather Stations